sensor_id;sensor_type;location;lat;lon;timestamp;temperature;humidity
16182;DHT22;8197;51.664;7.114;2024-03-22T00:01:11;11.10;99.10
16182;DHT22;8197;51.664;7.114;2024-03-22T00:06:14;11.10;99.60
16182;DHT22;8197;51.664;7.114;2024-03-22T00:11:16;11.10;100.00
16182;DHT22;8197;51.664;7.114;2024-03-22T00:16:18;11.10;100.00
16182;DHT22;8197;51.664;7.114;2024-03-22T00:21:23;11.10;100.00
16182;DHT22;8197;51.664;7.114;2024-03-22T00:26:25;11.10;100.00
16182;DHT22;8197;51.664;7.114;2024-03-22T00:31:27;11.10;100.00
16182;DHT22;8197;51.664;7.114;2024-03-22T00:36:30;11.10;100.00
16182;DHT22;8197;51.664;7.114;2024-03-22T00:41:32;11.10;100.00
16182;DHT22;8197;51.664;7.114;2024-03-22T00:46:34;11.20;100.00
16182;DHT22;8197;51.664;7.114;2024-03-22T00:51:39;11.20;100.00
16182;DHT22;8197;51.664;7.114;2024-03-22T00:56:43;11.20;100.00
16182;DHT22;8197;51.664;7.114;2024-03-22T01:01:45;11.20;100.00
16182;DHT22;8197;51.664;7.114;2024-03-22T01:06:49;11.20;100.00
16182;DHT22;8197;51.664;7.114;2024-03-22T01:11:51;11.20;100.00
16182;DHT22;8197;51.664;7.114;2024-03-22T01:16:53;11.30;100.00
16182;DHT22;8197;51.664;7.114;2024-03-22T01:21:57;11.30;100.00
16182;DHT22;8197;51.664;7.114;2024-03-22T01:26:59;11.30;100.00
16182;DHT22;8197;51.664;7.114;2024-03-22T01:32:01;11.30;100.00
16182;DHT22;8197;51.664;7.114;2024-03-22T01:37:04;11.30;100.00
16182;DHT22;8197;51.664;7.114;2024-03-22T01:42:07;11.30;100.00
16182;DHT22;8197;51.664;7.114;2024-03-22T01:47:09;11.40;100.00
16182;DHT22;8197;51.664;7.114;2024-03-22T01:52:12;11.40;100.00
16182;DHT22;8197;51.664;7.114;2024-03-22T01:57:14;11.40;100.00
16182;DHT22;8197;51.664;7.114;2024-03-22T02:02:17;11.40;100.00
16182;DHT22;8197;51.664;7.114;2024-03-22T02:07:22;11.40;100.00
16182;DHT22;8197;51.664;7.114;2024-03-22T02:12:24;11.40;100.00
16182;DHT22;8197;51.664;7.114;2024-03-22T02:17:27;11.40;100.00
16182;DHT22;8197;51.664;7.114;2024-03-22T02:22:30;11.50;100.00
16182;DHT22;8197;51.664;7.114;2024-03-22T02:27:34;11.50;100.00
16182;DHT22;8197;51.664;7.114;2024-03-22T02:32:36;11.50;100.00
16182;DHT22;8197;51.664;7.114;2024-03-22T02:37:40;11.50;100.00
16182;DHT22;8197;51.664;7.114;2024-03-22T02:42:43;11.60;100.00
16182;DHT22;8197;51.664;7.114;2024-03-22T02:47:45;11.60;100.00
16182;DHT22;8197;51.664;7.114;2024-03-22T02:52:48;11.60;100.00
16182;DHT22;8197;51.664;7.114;2024-03-22T02:57:51;11.60;100.00
16182;DHT22;8197;51.664;7.114;2024-03-22T03:02:53;11.60;100.00
16182;DHT22;8197;51.664;7.114;2024-03-22T03:07:56;11.60;100.00
16182;DHT22;8197;51.664;7.114;2024-03-22T03:12:59;11.60;100.00
16182;DHT22;8197;51.664;7.114;2024-03-22T03:18:01;11.60;100.00
16182;DHT22;8197;51.664;7.114;2024-03-22T03:23:03;11.70;100.00
16182;DHT22;8197;51.664;7.114;2024-03-22T03:28:07;11.60;100.00
16182;DHT22;8197;51.664;7.114;2024-03-22T03:33:09;11.60;100.00
16182;DHT22;8197;51.664;7.114;2024-03-22T03:38:11;11.60;100.00
16182;DHT22;8197;51.664;7.114;2024-03-22T03:43:14;11.60;100.00
16182;DHT22;8197;51.664;7.114;2024-03-22T03:48:16;11.60;100.00
16182;DHT22;8197;51.664;7.114;2024-03-22T03:53:18;11.50;100.00
16182;DHT22;8197;51.664;7.114;2024-03-22T03:58:25;11.50;100.00
16182;DHT22;8197;51.664;7.114;2024-03-22T04:03:27;11.50;100.00
16182;DHT22;8197;51.664;7.114;2024-03-22T04:08:29;11.50;100.00
16182;DHT22;8197;51.664;7.114;2024-03-22T04:13:34;11.50;100.00
16182;DHT22;8197;51.664;7.114;2024-03-22T04:18:36;11.60;100.00
16182;DHT22;8197;51.664;7.114;2024-03-22T04:23:38;11.50;100.00
16182;DHT22;8197;51.664;7.114;2024-03-22T04:28:42;11.60;100.00
16182;DHT22;8197;51.664;7.114;2024-03-22T04:33:44;11.50;100.00
16182;DHT22;8197;51.664;7.114;2024-03-22T04:38:46;11.60;100.00
16182;DHT22;8197;51.664;7.114;2024-03-22T04:43:49;11.60;100.00
16182;DHT22;8197;51.664;7.114;2024-03-22T04:48:51;11.60;100.00
16182;DHT22;8197;51.664;7.114;2024-03-22T04:53:53;11.60;100.00
16182;DHT22;8197;51.664;7.114;2024-03-22T04:58:57;11.60;100.00
16182;DHT22;8197;51.664;7.114;2024-03-22T05:03:59;11.60;100.00
16182;DHT22;8197;51.664;7.114;2024-03-22T05:09:01;11.60;100.00
16182;DHT22;8197;51.664;7.114;2024-03-22T05:14:05;11.60;100.00
16182;DHT22;8197;51.664;7.114;2024-03-22T05:19:07;11.60;100.00
16182;DHT22;8197;51.664;7.114;2024-03-22T05:24:09;11.60;100.00
16182;DHT22;8197;51.664;7.114;2024-03-22T05:29:13;11.60;100.00
16182;DHT22;8197;51.664;7.114;2024-03-22T05:34:15;11.70;100.00
16182;DHT22;8197;51.664;7.114;2024-03-22T05:39:17;11.70;100.00
16182;DHT22;8197;51.664;7.114;2024-03-22T05:44:21;11.80;100.00
16182;DHT22;8197;51.664;7.114;2024-03-22T05:49:23;11.80;100.00
16182;DHT22;8197;51.664;7.114;2024-03-22T05:54:26;11.80;100.00
16182;DHT22;8197;51.664;7.114;2024-03-22T05:59:29;11.80;100.00
16182;DHT22;8197;51.664;7.114;2024-03-22T06:04:31;11.80;100.00
16182;DHT22;8197;51.664;7.114;2024-03-22T06:09:34;11.80;100.00
16182;DHT22;8197;51.664;7.114;2024-03-22T06:14:39;11.90;100.00
16182;DHT22;8197;51.664;7.114;2024-03-22T06:19:41;11.90;100.00
16182;DHT22;8197;51.664;7.114;2024-03-22T06:24:44;11.90;100.00
16182;DHT22;8197;51.664;7.114;2024-03-22T06:29:48;12.00;100.00
16182;DHT22;8197;51.664;7.114;2024-03-22T06:34:50;12.00;100.00
16182;DHT22;8197;51.664;7.114;2024-03-22T06:39:52;12.00;100.00
16182;DHT22;8197;51.664;7.114;2024-03-22T06:44:56;12.10;100.00
16182;DHT22;8197;51.664;7.114;2024-03-22T06:49:58;12.10;100.00
16182;DHT22;8197;51.664;7.114;2024-03-22T06:55:00;12.20;100.00
16182;DHT22;8197;51.664;7.114;2024-03-22T07:00:04;12.20;100.00
16182;DHT22;8197;51.664;7.114;2024-03-22T07:05:06;12.30;100.00
16182;DHT22;8197;51.664;7.114;2024-03-22T07:10:09;12.30;100.00
16182;DHT22;8197;51.664;7.114;2024-03-22T07:15:13;12.40;100.00
16182;DHT22;8197;51.664;7.114;2024-03-22T07:20:15;12.50;100.00
16182;DHT22;8197;51.664;7.114;2024-03-22T07:25:17;12.50;100.00
16182;DHT22;8197;51.664;7.114;2024-03-22T07:30:20;12.60;100.00
16182;DHT22;8197;51.664;7.114;2024-03-22T07:35:22;12.60;99.00
16182;DHT22;8197;51.664;7.114;2024-03-22T07:40:25;12.60;97.80
16182;DHT22;8197;51.664;7.114;2024-03-22T07:45:29;12.70;96.60
16182;DHT22;8197;51.664;7.114;2024-03-22T07:50:31;12.70;94.30
16182;DHT22;8197;51.664;7.114;2024-03-22T07:55:33;12.80;93.60
16182;DHT22;8197;51.664;7.114;2024-03-22T08:00:36;12.90;93.80
16182;DHT22;8197;51.664;7.114;2024-03-22T08:05:38;12.90;93.00
16182;DHT22;8197;51.664;7.114;2024-03-22T08:10:40;12.90;91.20
16182;DHT22;8197;51.664;7.114;2024-03-22T08:15:44;12.90;90.20
16182;DHT22;8197;51.664;7.114;2024-03-22T08:20:47;12.90;89.40
16182;DHT22;8197;51.664;7.114;2024-03-22T08:25:49;13.00;89.00
16182;DHT22;8197;51.664;7.114;2024-03-22T08:30:52;13.00;88.60
16182;DHT22;8197;51.664;7.114;2024-03-22T08:35:54;13.00;88.30
16182;DHT22;8197;51.664;7.114;2024-03-22T08:40:56;13.00;87.20
16182;DHT22;8197;51.664;7.114;2024-03-22T08:46:00;13.10;87.20
16182;DHT22;8197;51.664;7.114;2024-03-22T08:51:02;13.20;86.50
16182;DHT22;8197;51.664;7.114;2024-03-22T08:56:04;13.10;85.80
16182;DHT22;8197;51.664;7.114;2024-03-22T09:01:08;13.10;85.70
16182;DHT22;8197;51.664;7.114;2024-03-22T09:06:10;13.20;85.00
16182;DHT22;8197;51.664;7.114;2024-03-22T09:11:13;13.30;84.90
16182;DHT22;8197;51.664;7.114;2024-03-22T09:16:16;13.40;85.00
16182;DHT22;8197;51.664;7.114;2024-03-22T09:21:18;13.40;84.80
16182;DHT22;8197;51.664;7.114;2024-03-22T09:26:20;13.40;84.00
16182;DHT22;8197;51.664;7.114;2024-03-22T09:31:24;13.40;84.50
16182;DHT22;8197;51.664;7.114;2024-03-22T09:36:26;13.40;85.00
16182;DHT22;8197;51.664;7.114;2024-03-22T09:41:31;13.50;84.70
16182;DHT22;8197;51.664;7.114;2024-03-22T09:46:36;13.50;83.40
16182;DHT22;8197;51.664;7.114;2024-03-22T09:51:39;13.60;83.30
16182;DHT22;8197;51.664;7.114;2024-03-22T09:56:42;13.60;82.60
16182;DHT22;8197;51.664;7.114;2024-03-22T10:01:46;13.60;82.20
16182;DHT22;8197;51.664;7.114;2024-03-22T10:06:49;13.70;81.60
16182;DHT22;8197;51.664;7.114;2024-03-22T10:11:51;13.70;81.40
16182;DHT22;8197;51.664;7.114;2024-03-22T10:16:55;13.90;81.50
16182;DHT22;8197;51.664;7.114;2024-03-22T10:22:00;14.00;81.20
16182;DHT22;8197;51.664;7.114;2024-03-22T10:27:03;14.10;80.90
16182;DHT22;8197;51.664;7.114;2024-03-22T10:32:07;14.10;81.70
16182;DHT22;8197;51.664;7.114;2024-03-22T10:37:14;13.90;82.40
16182;DHT22;8197;51.664;7.114;2024-03-22T10:42:17;13.70;82.80
16182;DHT22;8197;51.664;7.114;2024-03-22T10:47:23;13.70;83.60
16182;DHT22;8197;51.664;7.114;2024-03-22T10:52:27;13.70;84.10
16182;DHT22;8197;51.664;7.114;2024-03-22T10:57:30;13.70;84.40
16182;DHT22;8197;51.664;7.114;2024-03-22T11:02:35;13.60;85.20
16182;DHT22;8197;51.664;7.114;2024-03-22T11:07:37;13.50;85.50
16182;DHT22;8197;51.664;7.114;2024-03-22T11:12:40;13.50;86.10
16182;DHT22;8197;51.664;7.114;2024-03-22T11:17:44;13.50;86.00
16182;DHT22;8197;51.664;7.114;2024-03-22T11:22:46;13.50;85.50
16182;DHT22;8197;51.664;7.114;2024-03-22T11:27:48;13.50;85.50
16182;DHT22;8197;51.664;7.114;2024-03-22T11:32:53;13.50;86.40
16182;DHT22;8197;51.664;7.114;2024-03-22T11:38:01;13.30;87.30
16182;DHT22;8197;51.664;7.114;2024-03-22T11:43:05;13.40;87.10
16182;DHT22;8197;51.664;7.114;2024-03-22T11:48:09;13.30;87.30
16182;DHT22;8197;51.664;7.114;2024-03-22T11:53:11;13.20;88.90
16182;DHT22;8197;51.664;7.114;2024-03-22T11:58:13;13.00;89.30
16182;DHT22;8197;51.664;7.114;2024-03-22T12:03:16;13.00;89.80
16182;DHT22;8197;51.664;7.114;2024-03-22T12:08:18;12.90;90.30
16182;DHT22;8197;51.664;7.114;2024-03-22T12:13:20;12.90;90.30
16182;DHT22;8197;51.664;7.114;2024-03-22T12:18:24;12.80;90.90
16182;DHT22;8197;51.664;7.114;2024-03-22T12:23:26;12.80;90.70
16182;DHT22;8197;51.664;7.114;2024-03-22T12:28:28;12.80;91.20
16182;DHT22;8197;51.664;7.114;2024-03-22T12:33:31;12.80;91.30
16182;DHT22;8197;51.664;7.114;2024-03-22T12:38:33;12.90;92.60
16182;DHT22;8197;51.664;7.114;2024-03-22T12:43:35;12.80;92.30
16182;DHT22;8197;51.664;7.114;2024-03-22T12:48:38;12.80;93.20
16182;DHT22;8197;51.664;7.114;2024-03-22T12:53:40;12.70;92.10
16182;DHT22;8197;51.664;7.114;2024-03-22T12:58:42;12.60;92.20
16182;DHT22;8197;51.664;7.114;2024-03-22T13:03:46;12.60;92.30
16182;DHT22;8197;51.664;7.114;2024-03-22T13:08:48;12.60;92.50
16182;DHT22;8197;51.664;7.114;2024-03-22T13:13:50;12.50;93.30
16182;DHT22;8197;51.664;7.114;2024-03-22T13:18:53;12.50;94.30
16182;DHT22;8197;51.664;7.114;2024-03-22T13:23:55;12.40;95.50
16182;DHT22;8197;51.664;7.114;2024-03-22T13:28:57;12.30;96.00
16182;DHT22;8197;51.664;7.114;2024-03-22T13:34:01;12.40;96.90
16182;DHT22;8197;51.664;7.114;2024-03-22T13:39:05;12.40;96.40
16182;DHT22;8197;51.664;7.114;2024-03-22T13:44:11;12.20;97.00
16182;DHT22;8197;51.664;7.114;2024-03-22T13:49:15;12.30;96.40
16182;DHT22;8197;51.664;7.114;2024-03-22T13:54:17;12.40;95.80
16182;DHT22;8197;51.664;7.114;2024-03-22T13:59:19;12.40;95.50
16182;DHT22;8197;51.664;7.114;2024-03-22T14:04:23;12.30;96.20
16182;DHT22;8197;51.664;7.114;2024-03-22T14:09:26;12.40;96.30
16182;DHT22;8197;51.664;7.114;2024-03-22T14:14:29;12.30;96.40
16182;DHT22;8197;51.664;7.114;2024-03-22T14:19:32;12.30;97.80
16182;DHT22;8197;51.664;7.114;2024-03-22T14:24:34;12.20;100.00
16182;DHT22;8197;51.664;7.114;2024-03-22T14:29:36;12.20;100.00
16182;DHT22;8197;51.664;7.114;2024-03-22T14:34:39;12.20;100.00
16182;DHT22;8197;51.664;7.114;2024-03-22T14:39:42;12.10;100.00
16182;DHT22;8197;51.664;7.114;2024-03-22T14:44:44;12.00;100.00
16182;DHT22;8197;51.664;7.114;2024-03-22T14:49:48;11.90;100.00
16182;DHT22;8197;51.664;7.114;2024-03-22T14:54:52;12.00;100.00
16182;DHT22;8197;51.664;7.114;2024-03-22T14:59:54;11.90;100.00
16182;DHT22;8197;51.664;7.114;2024-03-22T15:04:57;11.80;100.00
16182;DHT22;8197;51.664;7.114;2024-03-22T15:09:59;11.80;100.00
16182;DHT22;8197;51.664;7.114;2024-03-22T15:15:01;11.80;100.00
16182;DHT22;8197;51.664;7.114;2024-03-22T15:20:06;11.70;100.00
16182;DHT22;8197;51.664;7.114;2024-03-22T15:25:09;11.70;100.00
16182;DHT22;8197;51.664;7.114;2024-03-22T15:30:12;11.70;100.00
16182;DHT22;8197;51.664;7.114;2024-03-22T15:35:16;11.50;100.00
16182;DHT22;8197;51.664;7.114;2024-03-22T15:40:19;11.70;100.00
16182;DHT22;8197;51.664;7.114;2024-03-22T15:45:21;11.60;100.00
16182;DHT22;8197;51.664;7.114;2024-03-22T15:50:25;11.60;100.00
16182;DHT22;8197;51.664;7.114;2024-03-22T15:55:28;11.50;100.00
16182;DHT22;8197;51.664;7.114;2024-03-22T16:00:31;11.60;100.00
16182;DHT22;8197;51.664;7.114;2024-03-22T16:05:35;11.50;100.00
16182;DHT22;8197;51.664;7.114;2024-03-22T16:10:37;11.50;100.00
16182;DHT22;8197;51.664;7.114;2024-03-22T16:15:39;11.50;100.00
16182;DHT22;8197;51.664;7.114;2024-03-22T16:20:43;11.50;100.00
16182;DHT22;8197;51.664;7.114;2024-03-22T16:25:45;11.40;100.00
16182;DHT22;8197;51.664;7.114;2024-03-22T16:30:47;11.50;100.00
16182;DHT22;8197;51.664;7.114;2024-03-22T16:35:51;11.50;100.00
16182;DHT22;8197;51.664;7.114;2024-03-22T16:40:53;11.40;100.00
16182;DHT22;8197;51.664;7.114;2024-03-22T16:45:55;11.40;100.00
16182;DHT22;8197;51.664;7.114;2024-03-22T16:50:58;11.30;100.00
16182;DHT22;8197;51.664;7.114;2024-03-22T16:56:00;11.40;100.00
16182;DHT22;8197;51.664;7.114;2024-03-22T17:01:03;11.30;100.00
16182;DHT22;8197;51.664;7.114;2024-03-22T17:06:06;11.30;100.00
16182;DHT22;8197;51.664;7.114;2024-03-22T17:11:08;11.10;100.00
16182;DHT22;8197;51.664;7.114;2024-03-22T17:16:11;11.10;100.00
16182;DHT22;8197;51.664;7.114;2024-03-22T17:21:14;11.00;100.00
16182;DHT22;8197;51.664;7.114;2024-03-22T17:26:16;10.90;100.00
16182;DHT22;8197;51.664;7.114;2024-03-22T17:31:19;10.90;100.00
16182;DHT22;8197;51.664;7.114;2024-03-22T17:36:22;11.00;100.00
16182;DHT22;8197;51.664;7.114;2024-03-22T17:41:25;10.90;100.00
16182;DHT22;8197;51.664;7.114;2024-03-22T17:46:28;10.80;100.00
16182;DHT22;8197;51.664;7.114;2024-03-22T17:51:32;10.70;100.00
16182;DHT22;8197;51.664;7.114;2024-03-22T17:56:34;10.50;100.00
16182;DHT22;8197;51.664;7.114;2024-03-22T18:01:38;10.50;100.00
16182;DHT22;8197;51.664;7.114;2024-03-22T18:06:41;10.50;100.00
16182;DHT22;8197;51.664;7.114;2024-03-22T18:11:43;10.50;100.00
16182;DHT22;8197;51.664;7.114;2024-03-22T18:16:45;10.40;100.00
16182;DHT22;8197;51.664;7.114;2024-03-22T18:21:50;10.40;100.00
16182;DHT22;8197;51.664;7.114;2024-03-22T18:26:54;10.30;100.00
16182;DHT22;8197;51.664;7.114;2024-03-22T18:31:56;10.10;100.00
16182;DHT22;8197;51.664;7.114;2024-03-22T18:37:00;10.20;100.00
16182;DHT22;8197;51.664;7.114;2024-03-22T18:42:02;10.20;100.00
16182;DHT22;8197;51.664;7.114;2024-03-22T18:47:05;10.10;100.00
16182;DHT22;8197;51.664;7.114;2024-03-22T18:52:08;10.00;100.00
16182;DHT22;8197;51.664;7.114;2024-03-22T18:57:10;10.10;100.00
16182;DHT22;8197;51.664;7.114;2024-03-22T19:02:12;10.10;100.00
16182;DHT22;8197;51.664;7.114;2024-03-22T19:07:16;10.00;100.00
16182;DHT22;8197;51.664;7.114;2024-03-22T19:12:19;10.00;100.00
16182;DHT22;8197;51.664;7.114;2024-03-22T19:17:22;10.00;100.00
16182;DHT22;8197;51.664;7.114;2024-03-22T19:22:25;9.90;100.00
16182;DHT22;8197;51.664;7.114;2024-03-22T19:27:27;9.90;100.00
16182;DHT22;8197;51.664;7.114;2024-03-22T19:32:29;9.90;100.00
16182;DHT22;8197;51.664;7.114;2024-03-22T19:37:33;9.80;100.00
16182;DHT22;8197;51.664;7.114;2024-03-22T19:42:35;9.80;100.00
16182;DHT22;8197;51.664;7.114;2024-03-22T19:47:38;9.90;100.00
16182;DHT22;8197;51.664;7.114;2024-03-22T19:52:42;10.00;100.00
16182;DHT22;8197;51.664;7.114;2024-03-22T19:57:44;10.10;100.00
16182;DHT22;8197;51.664;7.114;2024-03-22T20:02:46;10.10;100.00
16182;DHT22;8197;51.664;7.114;2024-03-22T20:07:50;10.10;100.00
16182;DHT22;8197;51.664;7.114;2024-03-22T20:12:52;10.00;100.00
16182;DHT22;8197;51.664;7.114;2024-03-22T20:17:55;10.10;100.00
16182;DHT22;8197;51.664;7.114;2024-03-22T20:23:00;9.90;100.00
16182;DHT22;8197;51.664;7.114;2024-03-22T20:28:05;9.90;100.00
16182;DHT22;8197;51.664;7.114;2024-03-22T20:33:08;9.70;100.00
16182;DHT22;8197;51.664;7.114;2024-03-22T20:38:12;9.60;100.00
